Freetown, New York
Current Conditions -  °F | °C
As of 11:15 PM on Sunday 25 Jan 2015 (Local Time) from KN03 Reporting Station
Clear Clear  
Wind Chill:   Ceiling: Unl
Heat Index:   Visibility: 10mi
Dew Point:   Wind: 3mph
Humidity: 85%   Direction: 20°NNE
Pressure: 30.02"   Gusts: NA
Location:  42.4596°N, 76.0658°W
Report Text: KN03 260415Z AUTO 02003KT 10SM CLR M15/M17 A3002 RMK AO2
Loading
Personal Weather Stations






























Interactive Weather Map New forecast layout! Learn more

10-Day Weather Forecast

Advertisements
Track Severe Weather on mobile